createdAt,value
2018-08-31T00:02:22.328Z,2.70
2018-08-31T00:05:38.916Z,2.67
2018-08-31T00:09:23.035Z,1.93
2018-08-31T00:12:12.449Z,2.40
2018-08-31T00:14:41.515Z,3.73
2018-08-31T00:17:10.578Z,2.90
2018-08-31T00:19:39.634Z,2.17
2018-08-31T00:22:08.700Z,2.13
2018-08-31T00:25:13.116Z,1.77
2018-08-31T00:27:59.394Z,2.47
2018-08-31T00:30:45.786Z,2.57
2018-08-31T00:33:29.255Z,2.30
2018-08-31T00:40:25.105Z,2.37
2018-08-31T00:45:27.361Z,2.20
2018-08-31T00:47:57.368Z,2.60
2018-08-31T00:50:27.705Z,2.60
2018-08-31T00:52:57.168Z,2.17
2018-08-31T00:55:26.367Z,2.17
2018-08-31T00:57:55.406Z,2.57
2018-08-31T01:00:24.447Z,2.50
2018-08-31T01:02:53.471Z,2.57
2018-08-31T01:05:22.501Z,2.87
2018-08-31T01:07:51.530Z,2.20
2018-08-31T01:10:21.927Z,2.30
2018-08-31T01:12:51.388Z,1.80
2018-08-31T01:15:20.466Z,2.20
2018-08-31T01:17:49.533Z,2.50
2018-08-31T01:20:18.578Z,2.30
2018-08-31T01:22:47.714Z,1.77
2018-08-31T01:25:16.732Z,2.33
2018-08-31T01:27:45.773Z,2.07
2018-08-31T01:30:14.822Z,2.70
2018-08-31T01:32:43.898Z,2.00
2018-08-31T01:35:12.965Z,2.77
2018-08-31T01:37:42.018Z,2.23
2018-08-31T01:40:11.132Z,2.30
2018-08-31T01:42:40.214Z,2.50
2018-08-31T01:45:09.407Z,2.73
2018-08-31T01:47:38.591Z,2.43
2018-08-31T01:50:07.794Z,2.50
2018-08-31T01:52:36.940Z,2.33
2018-08-31T01:55:06.334Z,2.47
2018-08-31T01:57:35.438Z,2.20
2018-08-31T02:00:04.693Z,2.20
2018-08-31T02:02:33.755Z,2.57
2018-08-31T02:05:02.771Z,3.03
2018-08-31T02:07:31.878Z,1.90
2018-08-31T02:10:00.921Z,2.53
2018-08-31T02:12:29.964Z,3.33
2018-08-31T02:14:59.043Z,2.50
2018-08-31T02:17:28.117Z,2.37
2018-08-31T02:19:57.145Z,2.10
2018-08-31T02:22:26.198Z,2.50
2018-08-31T02:24:55.264Z,2.57
2018-08-31T02:27:24.318Z,1.80
2018-08-31T02:29:53.369Z,2.43
2018-08-31T02:32:22.412Z,1.40
2018-08-31T02:34:51.501Z,2.10
2018-08-31T02:37:20.587Z,2.20
2018-08-31T02:39:49.653Z,2.57
2018-08-31T02:42:18.768Z,2.83
2018-08-31T02:44:47.915Z,2.13
2018-08-31T02:47:17.039Z,2.23
2018-08-31T02:49:46.178Z,2.50
2018-08-31T02:52:15.219Z,2.30
2018-08-31T02:54:44.275Z,2.70
2018-08-31T02:57:13.296Z,2.30
2018-08-31T02:59:42.309Z,2.03
2018-08-31T03:02:11.347Z,1.90
2018-08-31T03:04:40.376Z,2.37
2018-08-31T03:07:09.420Z,2.13
2018-08-31T03:09:38.488Z,1.83
2018-08-31T03:12:07.502Z,2.37
2018-08-31T03:14:36.581Z,2.50
2018-08-31T03:17:05.617Z,1.90
2018-08-31T03:19:34.764Z,3.60
2018-08-31T03:22:03.791Z,2.30
2018-08-31T03:24:32.851Z,2.60
2018-08-31T03:27:01.920Z,2.37
2018-08-31T03:29:30.978Z,2.80
2018-08-31T03:32:00.330Z,2.47
2018-08-31T03:34:29.392Z,2.20
2018-08-31T03:36:58.550Z,2.70
2018-08-31T03:39:27.558Z,2.27
2018-08-31T03:41:56.661Z,2.70
2018-08-31T03:44:25.879Z,2.13
2018-08-31T03:46:55.283Z,2.47
2018-08-31T03:49:24.305Z,2.47
2018-08-31T03:51:53.951Z,2.33
2018-08-31T03:54:22.978Z,2.10
2018-08-31T03:56:52.280Z,2.63
2018-08-31T03:59:21.389Z,2.47
2018-08-31T04:01:50.427Z,2.70
2018-08-31T04:04:19.474Z,3.13
2018-08-31T04:06:48.570Z,2.27
2018-08-31T04:09:17.656Z,2.53
2018-08-31T04:11:46.687Z,2.60
2018-08-31T04:14:16.543Z,3.20
2018-08-31T04:16:45.668Z,3.00
2018-08-31T04:19:17.319Z,3.77
2018-08-31T04:21:46.842Z,3.17
2018-08-31T04:24:16.722Z,3.20
2018-08-31T04:26:46.672Z,3.20
2018-08-31T04:29:15.763Z,2.47
2018-08-31T04:31:44.842Z,3.50
2018-08-31T04:34:13.932Z,4.13
2018-08-31T04:36:43.342Z,2.97
2018-08-31T04:39:13.461Z,3.80
2018-08-31T04:41:43.694Z,2.53
2018-08-31T04:44:12.846Z,2.53
2018-08-31T04:46:41.963Z,3.40
2018-08-31T04:49:11.018Z,2.87
2018-08-31T04:51:40.155Z,3.80
2018-08-31T04:54:09.529Z,3.60
2018-08-31T04:56:38.786Z,3.33
2018-08-31T04:59:08.876Z,3.60
2018-08-31T05:01:38.190Z,2.23
2018-08-31T05:04:07.358Z,2.73
2018-08-31T05:06:36.934Z,3.50
2018-08-31T05:09:09.417Z,2.20
2018-08-31T05:11:38.581Z,3.00
2018-08-31T05:14:08.238Z,3.40
2018-08-31T05:16:37.266Z,3.33
2018-08-31T05:19:06.303Z,3.60
2018-08-31T05:21:35.398Z,2.43
2018-08-31T05:24:04.414Z,3.60
2018-08-31T05:26:33.470Z,2.73
2018-08-31T05:29:02.497Z,3.30
2018-08-31T05:31:31.544Z,2.83
2018-08-31T05:34:00.581Z,2.60
2018-08-31T05:36:29.716Z,3.37
2018-08-31T05:38:58.973Z,3.03
2018-08-31T05:41:28.078Z,3.70
2018-08-31T05:43:57.140Z,3.03
2018-08-31T05:46:26.184Z,3.03
2018-08-31T05:48:55.214Z,3.70
2018-08-31T05:51:24.262Z,2.53
2018-08-31T05:53:53.334Z,2.57
2018-08-31T05:56:22.493Z,2.70
2018-08-31T05:58:51.743Z,2.93
2018-08-31T06:01:20.845Z,2.67
2018-08-31T06:03:50.001Z,2.67
2018-08-31T06:06:19.185Z,2.47
2018-08-31T06:08:48.298Z,2.30
2018-08-31T06:11:17.337Z,2.60
2018-08-31T06:13:46.549Z,3.20
2018-08-31T06:16:15.593Z,2.90
2018-08-31T06:18:45.277Z,4.33
2018-08-31T06:21:14.304Z,2.70
2018-08-31T06:23:43.344Z,2.87
2018-08-31T06:26:12.391Z,2.83
2018-08-31T06:28:41.457Z,2.50
2018-08-31T06:31:10.478Z,3.13
2018-08-31T06:33:39.499Z,1.90
2018-08-31T06:36:08.513Z,2.13
2018-08-31T06:38:37.575Z,2.13
2018-08-31T06:41:06.593Z,2.80
2018-08-31T06:43:35.652Z,3.10
2018-08-31T06:46:05.116Z,1.60
2018-08-31T06:48:34.195Z,2.20
2018-08-31T06:51:03.234Z,2.00
2018-08-31T06:53:32.361Z,2.10
2018-08-31T06:56:01.441Z,2.07
2018-08-31T06:58:30.692Z,1.50
2018-08-31T07:01:01.039Z,2.20
2018-08-31T07:03:30.530Z,2.07
2018-08-31T07:05:59.820Z,2.30
2018-08-31T07:08:29.504Z,2.60
2018-08-31T07:11:00.557Z,2.27
2018-08-31T07:13:29.755Z,1.93
2018-08-31T07:15:58.994Z,2.80
2018-08-31T07:18:28.240Z,3.40
2018-08-31T07:20:57.306Z,2.00
2018-08-31T07:23:26.319Z,1.80
2018-08-31T07:25:55.378Z,2.50
2018-08-31T07:28:24.513Z,2.13
2018-08-31T07:30:53.570Z,2.10
2018-08-31T07:33:22.625Z,2.33
2018-08-31T07:35:51.797Z,1.93
2018-08-31T07:38:20.932Z,1.20
2018-08-31T07:40:50.242Z,2.07
2018-08-31T07:43:19.484Z,1.37
2018-08-31T07:45:48.566Z,2.13
2018-08-31T07:48:17.780Z,2.00
2018-08-31T07:50:46.841Z,1.60
2018-08-31T07:53:15.884Z,2.00
2018-08-31T07:55:44.970Z,1.63
2018-08-31T07:58:14.032Z,1.77
2018-08-31T08:00:43.062Z,1.90
2018-08-31T08:03:12.172Z,2.80
2018-08-31T08:05:41.288Z,2.33
2018-08-31T08:08:10.639Z,1.53
2018-08-31T08:10:39.802Z,1.83
2018-08-31T08:13:09.155Z,3.20
2018-08-31T08:15:38.273Z,2.20
2018-08-31T08:18:07.505Z,1.87
2018-08-31T08:20:36.591Z,1.70
2018-08-31T08:23:05.714Z,2.20
2018-08-31T08:25:34.767Z,1.40
2018-08-31T08:28:03.967Z,2.00
2018-08-31T08:30:33.281Z,1.90
2018-08-31T08:33:02.311Z,2.03
2018-08-31T08:35:31.611Z,1.37
2018-08-31T08:38:00.613Z,2.37
2018-08-31T08:40:29.706Z,2.10
2018-08-31T08:42:58.958Z,1.93
2018-08-31T08:45:28.011Z,2.10
2018-08-31T08:47:57.220Z,2.23
2018-08-31T08:50:26.295Z,1.60
2018-08-31T08:52:55.365Z,2.07
2018-08-31T08:55:24.447Z,2.43
2018-08-31T08:57:53.510Z,1.83
2018-08-31T09:00:22.772Z,2.73
2018-08-31T09:02:51.956Z,2.53
2018-08-31T09:05:22.061Z,2.10
2018-08-31T09:07:51.475Z,1.63
2018-08-31T09:10:21.012Z,1.57
2018-08-31T09:12:50.301Z,2.30
2018-08-31T09:15:19.797Z,1.97
2018-08-31T09:17:50.310Z,2.23
2018-08-31T09:20:20.123Z,1.87
2018-08-31T09:22:49.350Z,1.80
2018-08-31T09:25:18.668Z,1.70
2018-08-31T09:27:47.778Z,1.97
2018-08-31T09:30:22.726Z,2.57
2018-08-31T09:32:52.376Z,1.63
2018-08-31T09:35:21.723Z,2.00
2018-08-31T09:37:50.883Z,2.00
2018-08-31T09:40:20.210Z,1.73
2018-08-31T09:42:49.274Z,2.20
2018-08-31T09:45:18.358Z,2.50
2018-08-31T09:47:47.398Z,2.73
2018-08-31T09:50:16.482Z,2.03
2018-08-31T10:06:41.748Z,2.30
2018-08-31T10:13:11.323Z,2.27
2018-08-31T10:15:40.832Z,2.00
2018-08-31T10:18:09.877Z,2.67
2018-08-31T10:20:39.037Z,2.43
2018-08-31T10:23:08.115Z,2.33
2018-08-31T10:25:37.906Z,1.60
2018-08-31T10:28:06.993Z,2.60
2018-08-31T10:30:36.215Z,2.70
2018-08-31T10:33:05.504Z,2.80
2018-08-31T10:35:34.744Z,2.07
2018-08-31T10:38:04.189Z,2.10
2018-08-31T10:40:33.640Z,1.90
2018-08-31T10:43:02.971Z,2.30
2018-08-31T10:45:32.176Z,2.30
2018-08-31T10:48:01.366Z,2.30
2018-08-31T10:50:30.470Z,2.07
2018-08-31T10:52:59.491Z,1.83
2018-08-31T10:55:28.889Z,1.87
2018-08-31T10:57:57.935Z,2.03
2018-08-31T11:00:26.953Z,2.07
2018-08-31T11:02:56.148Z,1.70
2018-08-31T11:05:25.194Z,2.50
2018-08-31T11:07:54.258Z,2.00
2018-08-31T11:10:23.449Z,2.23
2018-08-31T11:12:52.557Z,2.27
2018-08-31T11:15:21.729Z,3.10
2018-08-31T11:17:50.819Z,1.63
2018-08-31T11:20:19.932Z,1.97
2018-08-31T11:22:49.215Z,1.90
2018-08-31T11:25:18.294Z,2.17
2018-08-31T11:27:47.429Z,2.50
2018-08-31T11:30:16.443Z,1.77
2018-08-31T11:32:45.669Z,3.03
2018-08-31T11:35:14.776Z,2.70
2018-08-31T11:37:43.971Z,2.50
2018-08-31T11:40:13.140Z,2.67
2018-08-31T11:42:42.284Z,1.90
2018-08-31T11:45:11.359Z,2.17
2018-08-31T11:47:40.465Z,2.30
2018-08-31T11:50:09.577Z,3.30
2018-08-31T11:52:38.674Z,2.13
2018-08-31T11:55:08.090Z,2.33
2018-08-31T11:57:37.133Z,2.23
2018-08-31T12:00:06.275Z,2.67
2018-08-31T12:02:35.392Z,2.80
2018-08-31T12:05:05.633Z,2.37
2018-08-31T12:07:35.829Z,2.17
2018-08-31T12:10:04.908Z,2.53
2018-08-31T12:12:33.960Z,2.67
2018-08-31T12:15:03.071Z,2.90
2018-08-31T12:17:32.201Z,2.10
2018-08-31T12:20:01.264Z,3.37
2018-08-31T12:22:30.386Z,2.83
2018-08-31T12:24:59.446Z,2.73
2018-08-31T12:27:28.811Z,2.73
2018-08-31T12:29:57.946Z,2.70
2018-08-31T12:32:27.071Z,3.50
2018-08-31T12:34:56.166Z,2.30
2018-08-31T12:37:25.403Z,2.10
2018-08-31T12:39:54.565Z,2.03
2018-08-31T12:42:23.662Z,2.33
2018-08-31T12:44:52.864Z,2.87
2018-08-31T12:47:22.052Z,2.20
2018-08-31T12:49:51.129Z,2.43
2018-08-31T12:52:20.276Z,3.00
2018-08-31T12:54:49.372Z,2.33
2018-08-31T12:57:18.436Z,2.30
2018-08-31T12:59:52.873Z,2.43
2018-08-31T13:02:22.519Z,2.60
2018-08-31T13:04:51.589Z,2.50
2018-08-31T13:07:20.659Z,2.70
2018-08-31T13:09:49.712Z,2.83
2018-08-31T13:12:18.821Z,3.07
2018-08-31T13:14:47.939Z,2.50
2018-08-31T13:17:17.083Z,3.07
2018-08-31T13:19:46.234Z,2.77
2018-08-31T13:22:15.271Z,2.67
2018-08-31T13:24:44.313Z,2.93
2018-08-31T13:27:13.499Z,2.90
2018-08-31T13:29:42.563Z,2.53
2018-08-31T13:32:11.602Z,2.70
2018-08-31T13:34:40.666Z,2.60
2018-08-31T13:37:09.729Z,2.63
2018-08-31T13:39:38.860Z,4.00
2018-08-31T13:42:08.303Z,2.87
2018-08-31T13:44:37.482Z,2.60
2018-08-31T13:47:06.775Z,2.93
2018-08-31T13:49:36.176Z,2.67
2018-08-31T13:52:07.060Z,2.70
2018-08-31T13:54:36.583Z,2.27
2018-08-31T13:57:05.905Z,2.67
2018-08-31T13:59:35.265Z,2.60
2018-08-31T14:02:04.474Z,2.70
2018-08-31T14:04:33.666Z,2.73
2018-08-31T14:07:02.792Z,3.17
2018-08-31T14:09:31.833Z,2.97
2018-08-31T14:12:00.984Z,2.70
2018-08-31T14:14:30.061Z,3.03
2018-08-31T14:16:59.082Z,2.53
2018-08-31T14:19:28.197Z,3.03
2018-08-31T14:21:57.254Z,2.83
2018-08-31T14:24:26.279Z,2.77
2018-08-31T14:26:55.850Z,2.63
2018-08-31T14:29:24.938Z,3.10
2018-08-31T14:31:54.008Z,3.47
2018-08-31T14:34:23.101Z,2.90
2018-08-31T14:36:52.224Z,2.30
2018-08-31T14:39:22.125Z,2.77
2018-08-31T14:41:51.250Z,3.30
2018-08-31T14:44:21.170Z,3.50
2018-08-31T14:46:50.300Z,2.63
2018-08-31T14:49:20.252Z,2.87
2018-08-31T15:01:44.054Z,3.17
2018-08-31T15:04:14.395Z,2.90
2018-08-31T15:06:46.163Z,3.23
2018-08-31T15:09:15.774Z,2.20
2018-08-31T15:11:47.161Z,2.20
2018-08-31T15:14:45.334Z,2.70
2018-08-31T15:17:15.375Z,3.20
2018-08-31T15:20:15.255Z,2.90
2018-08-31T15:22:44.864Z,3.93
2018-08-31T15:29:32.318Z,3.10
2018-08-31T15:35:51.854Z,2.53
2018-08-31T15:38:21.090Z,2.87
2018-08-31T15:40:50.398Z,2.77
2018-08-31T15:43:19.502Z,2.73
2018-08-31T15:45:48.597Z,2.87
2018-08-31T15:48:17.694Z,3.00
2018-08-31T15:50:46.832Z,4.07
2018-08-31T15:53:15.885Z,2.17
2018-08-31T15:55:44.989Z,2.50
2018-08-31T15:58:14.477Z,2.70
2018-08-31T16:00:43.519Z,3.30
2018-08-31T16:03:12.663Z,2.73
2018-08-31T16:05:41.782Z,2.43
2018-08-31T16:08:11.090Z,3.03
2018-08-31T16:10:40.153Z,3.27
2018-08-31T16:15:47.451Z,4.93
2018-08-31T16:18:16.943Z,3.03
2018-08-31T16:20:46.142Z,2.93
2018-08-31T16:23:15.374Z,3.30
2018-08-31T16:25:44.403Z,3.20
2018-08-31T16:28:13.436Z,3.30
2018-08-31T16:30:42.555Z,2.70
2018-08-31T16:33:11.657Z,2.43
2018-08-31T16:35:40.727Z,2.70
2018-08-31T16:38:09.824Z,2.97
2018-08-31T16:40:38.997Z,2.80
2018-08-31T16:43:08.082Z,2.63
2018-08-31T16:45:37.144Z,3.00
2018-08-31T16:48:06.313Z,2.37
2018-08-31T16:50:35.386Z,3.03
2018-08-31T16:53:05.627Z,2.70
2018-08-31T16:55:34.856Z,2.87
2018-08-31T16:58:04.137Z,3.03
2018-08-31T17:00:33.986Z,2.70
2018-08-31T17:03:03.868Z,2.60
2018-08-31T17:05:33.222Z,2.90
2018-08-31T17:08:02.634Z,3.27
2018-08-31T17:10:31.711Z,2.40
2018-08-31T17:13:00.819Z,2.97
2018-08-31T17:15:29.883Z,3.97
2018-08-31T17:17:59.632Z,2.60
2018-08-31T17:20:28.685Z,3.40
2018-08-31T17:22:57.825Z,2.53
2018-08-31T17:25:26.951Z,2.20
2018-08-31T17:28:01.331Z,3.63
2018-08-31T17:30:30.429Z,3.10
2018-08-31T17:33:04.743Z,2.60
2018-08-31T17:35:39.294Z,2.47
2018-08-31T17:38:09.356Z,2.70
2018-08-31T17:40:39.861Z,2.77
2018-08-31T17:43:09.206Z,2.80
2018-08-31T17:45:38.638Z,2.93
2018-08-31T17:48:08.374Z,3.40
2018-08-31T17:50:37.540Z,2.73
2018-08-31T17:53:06.612Z,3.17
2018-08-31T17:55:35.718Z,2.90
2018-08-31T17:58:04.776Z,2.70
2018-08-31T18:00:33.839Z,2.70
2018-08-31T18:03:03.203Z,2.90
2018-08-31T18:05:32.297Z,3.53
2018-08-31T18:08:01.363Z,2.50
2018-08-31T18:10:30.598Z,2.30
2018-08-31T18:13:06.500Z,2.80
2018-08-31T18:15:35.698Z,3.10
2018-08-31T18:18:04.762Z,2.90
2018-08-31T18:20:34.264Z,2.90
2018-08-31T18:23:03.400Z,2.40
2018-08-31T18:25:32.483Z,3.07
2018-08-31T18:28:01.659Z,2.90
2018-08-31T18:30:30.804Z,3.47
2018-08-31T18:32:59.969Z,2.60
2018-08-31T18:35:29.194Z,2.77
2018-08-31T18:37:58.481Z,2.90
2018-08-31T18:40:27.950Z,2.80
2018-08-31T18:42:57.486Z,3.10
2018-08-31T18:45:26.995Z,3.00
2018-08-31T18:47:56.269Z,3.20
2018-08-31T18:50:25.573Z,3.67
2018-08-31T18:52:55.269Z,3.13
2018-08-31T18:55:25.126Z,3.57
2018-08-31T18:57:54.892Z,3.30
2018-08-31T19:03:13.339Z,3.05
2018-08-31T19:05:42.442Z,3.33
2018-08-31T19:08:11.543Z,2.87
2018-08-31T19:10:40.713Z,3.10
2018-08-31T19:13:09.800Z,3.90
2018-08-31T19:15:38.870Z,3.37
2018-08-31T19:18:07.938Z,3.23
2018-08-31T19:20:37.034Z,3.47
2018-08-31T19:23:06.169Z,3.70
2018-08-31T19:25:35.351Z,3.67
2018-08-31T19:28:04.480Z,3.37
2018-08-31T19:30:33.688Z,3.60
2018-08-31T19:33:03.001Z,3.00
2018-08-31T19:35:33.492Z,4.00
2018-08-31T19:38:02.982Z,4.07
2018-08-31T19:40:32.779Z,4.10
2018-08-31T19:43:02.514Z,3.37
2018-08-31T19:45:32.226Z,4.13
2018-08-31T19:48:01.855Z,4.63
2018-08-31T19:50:31.382Z,3.90
2018-08-31T19:53:01.103Z,4.47
2018-08-31T19:55:30.604Z,5.13
2018-08-31T19:58:00.119Z,3.77
2018-08-31T20:00:29.447Z,3.30
2018-08-31T20:02:58.605Z,4.20
2018-08-31T20:05:27.959Z,3.67
2018-08-31T20:07:57.079Z,4.17
2018-08-31T20:10:26.176Z,4.13
2018-08-31T20:12:55.271Z,4.27
2018-08-31T20:15:24.426Z,5.70
2018-08-31T20:17:53.582Z,4.27
2018-08-31T20:20:22.698Z,4.27
2018-08-31T20:22:51.764Z,3.93
2018-08-31T20:25:20.844Z,4.40
2018-08-31T20:27:49.924Z,3.90
2018-08-31T20:30:19.029Z,4.20
2018-08-31T20:32:48.157Z,3.80
2018-08-31T20:35:17.245Z,4.87
2018-08-31T20:37:46.324Z,4.50
2018-08-31T20:40:15.447Z,4.33
2018-08-31T20:42:44.633Z,4.90
2018-08-31T20:45:13.976Z,3.80
2018-08-31T20:47:43.467Z,4.50
2018-08-31T20:50:12.933Z,4.30
2018-08-31T20:52:42.692Z,5.50
2018-08-31T20:55:12.302Z,5.30
2018-08-31T20:57:44.095Z,4.90
2018-08-31T21:00:13.632Z,4.30
2018-08-31T21:02:43.043Z,6.20
2018-08-31T21:05:12.615Z,4.83
2018-08-31T21:07:41.989Z,4.00
2018-08-31T21:10:11.223Z,4.40
2018-08-31T21:12:40.501Z,5.03
2018-08-31T21:15:09.659Z,6.00
2018-08-31T21:17:38.760Z,4.33
2018-08-31T21:20:07.917Z,5.00
2018-08-31T21:22:37.145Z,4.57
2018-08-31T21:25:06.301Z,4.33
2018-08-31T21:27:35.413Z,4.60
2018-08-31T21:30:04.574Z,4.37
2018-08-31T21:32:33.668Z,4.70
2018-08-31T21:35:02.727Z,5.23
2018-08-31T21:37:31.765Z,4.60
2018-08-31T21:40:00.786Z,4.63
2018-08-31T21:42:29.892Z,4.00
2018-08-31T21:44:58.888Z,5.33
2018-08-31T21:47:27.939Z,4.43
2018-08-31T21:49:57.017Z,3.93
2018-08-31T21:52:26.097Z,3.80
2018-08-31T21:54:55.294Z,4.83
2018-08-31T21:57:24.365Z,4.43
2018-08-31T21:59:53.539Z,3.50
2018-08-31T22:02:22.797Z,4.00
2018-08-31T22:04:52.086Z,4.73
2018-08-31T22:07:21.372Z,4.50
2018-08-31T22:09:50.524Z,4.37
2018-08-31T22:12:19.623Z,4.47
2018-08-31T22:14:48.723Z,5.17
2018-08-31T22:17:17.859Z,3.80
2018-08-31T22:19:46.984Z,4.60
2018-08-31T22:22:16.046Z,4.80
2018-08-31T22:24:45.166Z,4.30
2018-08-31T22:27:14.153Z,5.20
2018-08-31T22:29:43.212Z,4.20
2018-08-31T22:32:12.271Z,4.00
2018-08-31T22:34:41.311Z,6.30
2018-08-31T22:37:10.359Z,3.50
2018-08-31T22:39:39.446Z,4.40
2018-08-31T22:42:08.494Z,4.47
2018-08-31T22:44:37.522Z,3.73
2018-08-31T22:47:06.576Z,4.10
2018-08-31T22:49:35.664Z,4.17
2018-08-31T22:52:04.810Z,3.73
2018-08-31T22:54:33.941Z,3.47
2018-08-31T22:57:03.014Z,3.70
2018-08-31T22:59:32.633Z,4.33
2018-08-31T23:02:01.755Z,4.10
2018-08-31T23:04:31.139Z,4.33
2018-08-31T23:07:00.247Z,3.70
2018-08-31T23:09:29.707Z,4.70
2018-08-31T23:11:58.734Z,3.53
2018-08-31T23:14:27.752Z,4.53
2018-08-31T23:16:56.775Z,3.67
2018-08-31T23:19:25.853Z,4.00
2018-08-31T23:21:54.874Z,4.90
2018-08-31T23:24:23.896Z,4.17
2018-08-31T23:26:52.902Z,4.50
2018-08-31T23:29:22.069Z,3.73
2018-08-31T23:31:51.101Z,3.60
2018-08-31T23:34:20.402Z,3.90
2018-08-31T23:36:49.522Z,3.70
2018-08-31T23:39:18.555Z,4.07
2018-08-31T23:41:47.670Z,3.73
2018-08-31T23:44:16.716Z,3.77
2018-08-31T23:46:45.763Z,5.17
2018-08-31T23:49:14.806Z,4.20
2018-08-31T23:51:44.840Z,4.27
2018-08-31T23:54:13.984Z,4.10
2018-08-31T23:56:43.049Z,3.50
2018-08-31T23:59:12.518Z,5.40
